Terminal Aerodrome Forecast
Issued by NWS Milwaukee/Sullivan, WI

Home | Current Version | Previous Version | Text Only | Print | Product List | Glossary On
Versions: 1 2 3 4 5 6 7 8 9 10 11 12 13 14 15 16 17 18 19 20 21 22 23 24 25 26 27 28 29 30 31 32 33 34 35 36 37 38 39 40 41 42 43 44 45 46 47 48 49 50
477
FTUS43 KMKX 252331
TAFMKE
TAF
KMKE 252331Z 2600/2706 10005KT P6SM VCTS BKN060CB
      TEMPO 2600/2603 4SM TSRA BKN040CB
     FM260300 19005KT 5SM BR OVC120
     FM260700 19005KT 2SM BR BKN070
     FM261600 20008KT P6SM BKN060
     FM270000 21005KT P6SM SCT250=

USA.gov is the U.S. government's official web portal to all federal, state and local government web resources and services.